createdAt,value
2023-03-03T00:03:51.725Z,92.40
2023-03-03T00:07:53.651Z,92.40
2023-03-03T00:11:58.499Z,92.40
2023-03-03T00:16:25.410Z,92.40
2023-03-03T00:20:39.230Z,92.50
2023-03-03T00:24:41.110Z,92.60
2023-03-03T00:28:49.142Z,92.40
2023-03-03T00:32:53.072Z,92.60
2023-03-03T00:36:56.903Z,92.60
2023-03-03T00:40:58.906Z,92.60
2023-03-03T00:45:01.246Z,92.30
2023-03-03T00:49:15.924Z,92.40
2023-03-03T00:53:19.792Z,92.70
2023-03-03T00:57:22.066Z,93.00
2023-03-03T01:01:25.775Z,92.90
2023-03-03T01:05:29.537Z,92.60
2023-03-03T01:09:31.472Z,92.60
2023-03-03T01:13:37.913Z,92.50
2023-03-03T01:17:40.212Z,92.40
2023-03-03T01:21:42.048Z,92.60
2023-03-03T01:25:43.956Z,92.70
2023-03-03T01:29:45.888Z,92.60
2023-03-03T01:33:47.716Z,92.60
2023-03-03T01:37:49.674Z,92.60
2023-03-03T01:41:51.511Z,92.50
2023-03-03T01:45:54.020Z,92.50
2023-03-03T01:50:03.573Z,92.50
2023-03-03T01:54:11.151Z,92.50
2023-03-03T01:59:04.191Z,92.50
2023-03-03T02:03:06.530Z,92.50
2023-03-03T02:07:14.437Z,92.40
2023-03-03T02:11:16.741Z,92.50
2023-03-03T02:15:24.584Z,92.40
2023-03-03T02:19:48.112Z,92.50
2023-03-03T02:23:53.221Z,92.40
2023-03-03T02:27:57.476Z,92.50
2023-03-03T02:31:59.608Z,92.70
2023-03-03T02:36:01.643Z,93.00
2023-03-03T02:40:04.593Z,92.80
2023-03-03T02:44:11.224Z,92.80
2023-03-03T02:48:13.052Z,93.00
2023-03-03T02:52:18.093Z,92.90
2023-03-03T02:56:21.871Z,92.90
2023-03-03T03:00:23.915Z,92.70
2023-03-03T03:04:27.688Z,92.80
2023-03-03T03:08:30.465Z,93.00
2023-03-03T03:12:32.811Z,93.10
2023-03-03T03:16:36.665Z,93.00
2023-03-03T03:20:41.548Z,93.00
2023-03-03T03:24:44.763Z,93.00
2023-03-03T03:28:48.982Z,92.80
2023-03-03T03:32:51.435Z,92.80
2023-03-03T03:36:53.876Z,92.70
2023-03-03T03:40:58.502Z,92.60
2023-03-03T03:45:00.404Z,92.70
2023-03-03T03:49:02.573Z,92.70
2023-03-03T03:53:06.148Z,92.60
2023-03-03T03:57:08.351Z,92.60
2023-03-03T04:01:11.026Z,92.90
2023-03-03T04:05:20.485Z,92.70
2023-03-03T04:09:22.908Z,92.70
2023-03-03T04:13:28.875Z,92.80
2023-03-03T04:17:31.278Z,92.70
2023-03-03T04:21:33.228Z,92.60
2023-03-03T04:25:35.632Z,92.60
2023-03-03T04:29:46.887Z,92.70
2023-03-03T04:33:49.096Z,93.00
2023-03-03T04:37:51.692Z,93.00
2023-03-03T04:41:53.586Z,92.70
2023-03-03T04:45:55.801Z,92.90
2023-03-03T04:49:58.361Z,92.80
2023-03-03T04:54:00.706Z,92.80
2023-03-03T04:58:04.301Z,92.70
2023-03-03T05:02:06.605Z,92.50
2023-03-03T05:06:08.539Z,92.50
2023-03-03T05:10:11.043Z,92.50
2023-03-03T05:14:12.980Z,92.50
2023-03-03T05:18:14.831Z,92.50
2023-03-03T05:22:16.761Z,92.50
2023-03-03T05:26:18.607Z,92.30
2023-03-03T05:30:20.609Z,91.80
2023-03-03T05:34:22.475Z,92.30
2023-03-03T05:38:25.250Z,91.90
2023-03-03T05:42:27.141Z,91.90
2023-03-03T05:46:29.099Z,92.00
2023-03-03T05:50:31.424Z,92.60
2023-03-03T05:54:33.291Z,92.60
2023-03-03T05:58:35.214Z,92.10
2023-03-03T06:02:37.119Z,92.80
2023-03-03T06:06:39.036Z,92.90
2023-03-03T06:10:40.911Z,92.70
2023-03-03T06:14:45.029Z,92.70
2023-03-03T06:18:47.163Z,92.70
2023-03-03T06:22:49.007Z,92.80
2023-03-03T06:26:51.702Z,93.00
2023-03-03T06:30:54.960Z,92.70
2023-03-03T06:34:57.002Z,92.70
2023-03-03T06:38:58.894Z,92.70
2023-03-03T06:43:03.271Z,92.70
2023-03-03T06:47:05.969Z,92.50
2023-03-03T06:51:33.631Z,92.50
2023-03-03T06:55:35.600Z,92.70
2023-03-03T06:59:37.426Z,92.50
2023-03-03T07:03:39.448Z,92.10
2023-03-03T07:07:41.438Z,92.50
2023-03-03T07:11:46.211Z,92.60
2023-03-03T07:15:50.478Z,92.50
2023-03-03T07:19:52.476Z,92.00
2023-03-03T07:23:54.717Z,92.00
2023-03-03T07:28:01.141Z,92.40
2023-03-03T07:32:04.454Z,92.50
2023-03-03T07:36:19.825Z,92.50
2023-03-03T07:40:31.642Z,92.30
2023-03-03T07:44:38.071Z,92.30
2023-03-03T07:48:42.089Z,92.50
2023-03-03T07:52:56.774Z,92.40
2023-03-03T07:57:20.795Z,92.90
2023-03-03T08:01:39.665Z,92.70
2023-03-03T08:05:50.312Z,92.40
2023-03-03T08:09:57.077Z,91.70
2023-03-03T08:13:59.490Z,91.90
2023-03-03T08:18:01.842Z,92.70
2023-03-03T08:22:14.973Z,92.50
2023-03-03T08:26:17.195Z,92.40
2023-03-03T08:30:19.104Z,92.40
2023-03-03T08:34:20.957Z,91.80
2023-03-03T08:38:23.403Z,91.70
2023-03-03T08:42:25.253Z,91.60
2023-03-03T08:46:28.700Z,91.60
2023-03-03T08:50:30.749Z,92.80
2023-03-03T08:54:33.083Z,92.60
2023-03-03T08:58:36.301Z,91.90
2023-03-03T09:02:39.220Z,91.90
2023-03-03T09:06:41.146Z,91.80
2023-03-03T09:10:43.016Z,91.50
2023-03-03T09:14:45.224Z,91.10
2023-03-03T09:18:47.095Z,90.80
2023-03-03T09:22:50.362Z,90.90
2023-03-03T09:26:53.205Z,92.20
2023-03-03T09:30:58.586Z,92.00
2023-03-03T09:35:20.950Z,91.10
2023-03-03T09:39:26.418Z,90.70
2023-03-03T09:43:43.544Z,91.40
2023-03-03T09:48:00.128Z,91.40
2023-03-03T09:52:39.493Z,91.30
2023-03-03T09:57:09.835Z,91.30
2023-03-03T10:01:45.535Z,91.60
2023-03-03T10:06:09.664Z,90.80
2023-03-03T10:10:31.372Z,90.90
2023-03-03T10:15:07.048Z,91.80
2023-03-03T10:19:34.185Z,90.80
2023-03-03T10:23:58.329Z,90.00
2023-03-03T10:28:32.480Z,91.00
2023-03-03T10:33:15.653Z,90.20
2023-03-03T10:37:17.602Z,90.70
2023-03-03T10:42:04.587Z,90.00
2023-03-03T10:46:14.992Z,91.00
2023-03-03T10:50:30.786Z,91.10
2023-03-03T10:54:47.916Z,90.40
2023-03-03T10:59:02.102Z,91.30
2023-03-03T11:03:22.010Z,91.90
2023-03-03T11:07:54.630Z,91.60
2023-03-03T11:12:13.170Z,91.80
2023-03-03T11:16:47.577Z,89.40
2023-03-03T11:21:04.531Z,87.30
2023-03-03T11:25:23.472Z,86.90
2023-03-03T11:29:35.807Z,87.40
2023-03-03T11:33:46.537Z,87.70
2023-03-03T11:38:20.133Z,86.80
2023-03-03T11:42:26.665Z,85.10
2023-03-03T11:46:49.929Z,85.70
2023-03-03T11:51:02.789Z,86.40
2023-03-03T11:55:13.562Z,86.10
2023-03-03T11:59:36.671Z,84.70
2023-03-03T12:03:49.325Z,83.90
2023-03-03T12:08:16.286Z,84.40
2023-03-03T12:12:27.846Z,85.50
2023-03-03T12:16:29.665Z,85.20
2023-03-03T12:20:55.810Z,84.50
2023-03-03T12:25:19.625Z,84.30
2023-03-03T12:29:36.167Z,83.20
2023-03-03T12:33:49.791Z,85.70
2023-03-03T12:38:00.712Z,86.00
2023-03-03T12:42:22.128Z,86.40
2023-03-03T12:46:42.939Z,86.60
2023-03-03T12:51:10.864Z,86.40
2023-03-03T12:55:30.516Z,85.40
2023-03-03T13:00:17.092Z,85.90
2023-03-03T13:04:33.683Z,86.30
2023-03-03T13:08:54.001Z,84.60
2023-03-03T13:13:05.642Z,84.60
2023-03-03T13:17:19.433Z,83.50
2023-03-03T13:21:30.195Z,83.80
2023-03-03T13:25:38.079Z,83.60
2023-03-03T13:29:56.742Z,84.30
2023-03-03T13:34:00.480Z,84.20
2023-03-03T13:38:03.230Z,84.50
2023-03-03T13:42:29.976Z,84.10
2023-03-03T13:46:57.025Z,84.90
2023-03-03T13:51:19.619Z,83.50
2023-03-03T13:55:26.456Z,82.90
2023-03-03T13:59:52.270Z,83.00
2023-03-03T14:03:59.712Z,81.90
2023-03-03T14:08:27.879Z,82.50
2023-03-03T14:12:39.165Z,83.60
2023-03-03T14:16:58.643Z,82.10
2023-03-03T14:21:09.303Z,81.30
2023-03-03T14:25:15.701Z,81.10
2023-03-03T14:29:26.233Z,79.80
2023-03-03T14:33:32.251Z,81.30
2023-03-03T14:37:44.895Z,81.40
2023-03-03T14:41:46.974Z,81.10
2023-03-03T14:45:49.182Z,83.20
2023-03-03T14:49:52.259Z,82.30
2023-03-03T14:53:55.444Z,81.40
2023-03-03T14:57:58.454Z,81.40
2023-03-03T15:02:18.701Z,82.10
2023-03-03T15:06:56.423Z,83.40
2023-03-03T15:11:14.001Z,85.50
2023-03-03T15:15:25.574Z,86.10
2023-03-03T15:19:46.451Z,85.90
2023-03-03T15:24:12.344Z,85.80
2023-03-03T15:28:47.496Z,84.90
2023-03-03T15:32:56.919Z,84.80
2023-03-03T15:37:32.205Z,84.30
2023-03-03T15:41:54.351Z,84.10
2023-03-03T15:46:22.296Z,83.70
2023-03-03T15:50:51.685Z,82.50
2023-03-03T15:55:11.985Z,82.50
2023-03-03T15:59:45.040Z,83.80
2023-03-03T16:04:11.100Z,83.20
2023-03-03T16:08:17.588Z,82.80
2023-03-03T16:12:22.198Z,82.80
2023-03-03T16:16:42.342Z,82.80
2023-03-03T16:21:02.894Z,82.70
2023-03-03T16:25:42.247Z,83.30
2023-03-03T16:29:55.469Z,83.20
2023-03-03T16:34:26.501Z,83.40
2023-03-03T16:38:32.466Z,83.50
2023-03-03T16:42:34.563Z,82.50
2023-03-03T16:46:46.302Z,83.20
2023-03-03T16:50:58.412Z,83.40
2023-03-03T16:55:12.914Z,83.40
2023-03-03T16:59:17.579Z,83.40
2023-03-03T17:03:24.972Z,83.50
2023-03-03T17:07:54.377Z,83.20
2023-03-03T17:12:13.585Z,82.80
2023-03-03T17:16:52.306Z,83.00
2023-03-03T17:20:58.137Z,82.90
2023-03-03T17:25:45.823Z,83.00
2023-03-03T17:29:53.282Z,83.30
2023-03-03T17:34:16.184Z,84.50
2023-03-03T17:38:42.641Z,84.90
2023-03-03T17:43:07.451Z,85.70
2023-03-03T17:47:16.658Z,85.70
2023-03-03T17:51:21.571Z,86.20
2023-03-03T17:55:47.865Z,86.10
2023-03-03T18:00:11.161Z,87.00
2023-03-03T18:04:15.941Z,86.40
2023-03-03T18:08:36.325Z,86.20
2023-03-03T18:13:00.018Z,86.30
2023-03-03T18:17:35.591Z,86.30
2023-03-03T18:21:43.608Z,86.90
2023-03-03T18:26:01.115Z,87.60
2023-03-03T18:30:18.239Z,88.00
2023-03-03T18:34:20.056Z,88.00
2023-03-03T18:38:30.369Z,87.80
2023-03-03T18:42:42.668Z,87.40
2023-03-03T18:46:49.422Z,87.80
2023-03-03T18:50:52.501Z,88.70
2023-03-03T18:55:09.613Z,88.10
2023-03-03T18:59:31.655Z,87.30
2023-03-03T19:03:33.824Z,87.40
2023-03-03T19:07:59.169Z,88.80
2023-03-03T19:12:01.040Z,89.50
2023-03-03T19:16:09.361Z,89.90
2023-03-03T19:20:15.364Z,90.30
2023-03-03T19:24:27.978Z,90.30
2023-03-03T19:28:40.284Z,90.60
2023-03-03T19:33:11.994Z,90.60
2023-03-03T19:37:19.652Z,90.50
2023-03-03T19:42:01.235Z,90.60
2023-03-03T19:46:27.609Z,91.00
2023-03-03T19:50:29.395Z,90.90
2023-03-03T19:54:37.458Z,90.70
2023-03-03T19:59:07.304Z,90.60
2023-03-03T20:03:46.444Z,90.80
2023-03-03T20:08:25.600Z,90.80
2023-03-03T20:12:39.744Z,90.70
2023-03-03T20:16:45.108Z,90.70
2023-03-03T20:21:13.855Z,90.80
2023-03-03T20:25:33.706Z,90.70
2023-03-03T20:29:57.590Z,90.90
2023-03-03T20:34:26.946Z,90.70
2023-03-03T20:38:47.192Z,91.00
2023-03-03T20:43:19.704Z,91.60
2023-03-03T20:47:52.083Z,91.40
2023-03-03T20:51:53.879Z,91.00
2023-03-03T20:56:04.576Z,91.00
2023-03-03T21:00:27.933Z,91.40
2023-03-03T21:04:31.379Z,91.90
2023-03-03T21:08:49.466Z,91.40
2023-03-03T21:12:56.777Z,90.80
2023-03-03T21:17:02.604Z,91.60
2023-03-03T21:21:05.129Z,91.80
2023-03-03T21:25:07.303Z,92.20
2023-03-03T21:29:09.211Z,92.10
2023-03-03T21:33:11.094Z,91.80
2023-03-03T21:37:43.996Z,91.80
2023-03-03T21:41:53.375Z,91.50
2023-03-03T21:45:55.498Z,91.80
2023-03-03T21:49:57.372Z,92.20
2023-03-03T21:53:59.244Z,91.60
2023-03-03T21:58:01.110Z,91.50
2023-03-03T22:02:03.696Z,91.70
2023-03-03T22:06:05.825Z,92.10
2023-03-03T22:10:09.921Z,92.40
2023-03-03T22:14:12.273Z,92.50
2023-03-03T22:18:14.937Z,92.30
2023-03-03T22:22:16.783Z,92.10
2023-03-03T22:26:18.648Z,93.10
2023-03-03T22:30:20.610Z,94.00
2023-03-03T22:34:22.424Z,94.60
2023-03-03T22:38:25.096Z,94.10
2023-03-03T22:42:26.926Z,94.70
2023-03-03T22:46:29.001Z,94.40
2023-03-03T22:50:30.870Z,94.00
2023-03-03T22:54:32.723Z,93.80
2023-03-03T22:58:34.537Z,93.50
2023-03-03T23:02:36.376Z,93.50
2023-03-03T23:06:38.226Z,93.70
2023-03-03T23:10:40.142Z,93.80
2023-03-03T23:14:42.038Z,94.50
2023-03-03T23:18:43.896Z,93.80
2023-03-03T23:22:46.473Z,93.60
2023-03-03T23:26:51.766Z,93.40
2023-03-03T23:30:53.672Z,93.30
2023-03-03T23:34:55.580Z,93.70
2023-03-03T23:38:57.460Z,94.10
2023-03-03T23:42:59.289Z,94.00
2023-03-03T23:47:01.111Z,93.80
2023-03-03T23:51:03.399Z,93.80
2023-03-03T23:55:06.319Z,93.80
2023-03-03T23:59:08.220Z,93.80
